sensor_id;sensor_type;location;lat;lon;timestamp;temperature;humidity
33368;DHT22;19724;51.114;13.906;2022-12-31T00:01:44;7.90;99.90
33368;DHT22;19724;51.114;13.906;2022-12-31T00:04:09;7.90;99.90
33368;DHT22;19724;51.114;13.906;2022-12-31T00:06:35;7.90;99.90
33368;DHT22;19724;51.114;13.906;2022-12-31T00:09:03;7.80;99.90
33368;DHT22;19724;51.114;13.906;2022-12-31T00:11:30;7.90;99.90
33368;DHT22;19724;51.114;13.906;2022-12-31T00:13:56;7.80;99.90
33368;DHT22;19724;51.114;13.906;2022-12-31T00:16:28;7.90;99.90
33368;DHT22;19724;51.114;13.906;2022-12-31T00:18:56;7.90;99.90
33368;DHT22;19724;51.114;13.906;2022-12-31T00:21:23;7.90;99.90
33368;DHT22;19724;51.114;13.906;2022-12-31T00:23:49;8.00;99.90
33368;DHT22;19724;51.114;13.906;2022-12-31T00:26:20;7.90;99.90
33368;DHT22;19724;51.114;13.906;2022-12-31T00:28:46;8.00;99.90
33368;DHT22;19724;51.114;13.906;2022-12-31T00:33:38;8.10;99.90
33368;DHT22;19724;51.114;13.906;2022-12-31T00:36:19;8.10;99.90
33368;DHT22;19724;51.114;13.906;2022-12-31T00:38:47;8.20;99.90
33368;DHT22;19724;51.114;13.906;2022-12-31T00:41:14;8.20;99.90
33368;DHT22;19724;51.114;13.906;2022-12-31T00:43:40;8.30;99.90
33368;DHT22;19724;51.114;13.906;2022-12-31T00:46:07;8.30;99.90
33368;DHT22;19724;51.114;13.906;2022-12-31T00:48:33;8.30;99.90
33368;DHT22;19724;51.114;13.906;2022-12-31T00:50:59;8.30;99.90
33368;DHT22;19724;51.114;13.906;2022-12-31T00:53:26;8.30;99.90
33368;DHT22;19724;51.114;13.906;2022-12-31T00:55:52;8.40;99.90
33368;DHT22;19724;51.114;13.906;2022-12-31T00:58:23;8.40;99.90
33368;DHT22;19724;51.114;13.906;2022-12-31T01:00:48;8.40;99.90
33368;DHT22;19724;51.114;13.906;2022-12-31T01:03:14;8.40;99.90
33368;DHT22;19724;51.114;13.906;2022-12-31T01:05:39;8.50;99.90
33368;DHT22;19724;51.114;13.906;2022-12-31T01:08:05;8.50;99.90
33368;DHT22;19724;51.114;13.906;2022-12-31T01:10:30;8.50;99.90
33368;DHT22;19724;51.114;13.906;2022-12-31T01:13:14;8.50;99.90
33368;DHT22;19724;51.114;13.906;2022-12-31T01:15:40;8.60;99.90
33368;DHT22;19724;51.114;13.906;2022-12-31T01:18:07;8.60;99.90
33368;DHT22;19724;51.114;13.906;2022-12-31T01:20:37;8.60;99.90
33368;DHT22;19724;51.114;13.906;2022-12-31T01:23:05;8.70;99.90
33368;DHT22;19724;51.114;13.906;2022-12-31T01:25:34;8.70;99.90
33368;DHT22;19724;51.114;13.906;2022-12-31T01:27:59;8.80;99.90
33368;DHT22;19724;51.114;13.906;2022-12-31T01:30:25;8.80;99.90
33368;DHT22;19724;51.114;13.906;2022-12-31T01:32:50;8.80;99.90
33368;DHT22;19724;51.114;13.906;2022-12-31T01:35:16;8.80;99.90
33368;DHT22;19724;51.114;13.906;2022-12-31T01:37:41;8.90;99.90
33368;DHT22;19724;51.114;13.906;2022-12-31T01:40:07;8.90;99.90
33368;DHT22;19724;51.114;13.906;2022-12-31T01:42:32;8.90;99.90
33368;DHT22;19724;51.114;13.906;2022-12-31T01:44:58;9.00;99.90
33368;DHT22;19724;51.114;13.906;2022-12-31T01:47:34;8.90;99.90
33368;DHT22;19724;51.114;13.906;2022-12-31T01:50:15;9.00;99.90
33368;DHT22;19724;51.114;13.906;2022-12-31T01:52:45;9.00;99.90
33368;DHT22;19724;51.114;13.906;2022-12-31T01:55:29;9.00;99.90
33368;DHT22;19724;51.114;13.906;2022-12-31T01:58:05;9.00;99.90
33368;DHT22;19724;51.114;13.906;2022-12-31T02:00:32;9.00;99.90
33368;DHT22;19724;51.114;13.906;2022-12-31T02:02:58;9.00;99.90
33368;DHT22;19724;51.114;13.906;2022-12-31T02:05:43;9.00;99.90
33368;DHT22;19724;51.114;13.906;2022-12-31T02:08:10;9.00;99.90
33368;DHT22;19724;51.114;13.906;2022-12-31T02:10:36;9.00;99.90
33368;DHT22;19724;51.114;13.906;2022-12-31T02:13:02;9.00;99.90
33368;DHT22;19724;51.114;13.906;2022-12-31T02:18:29;9.00;99.90
33368;DHT22;19724;51.114;13.906;2022-12-31T02:21:19;9.10;99.90
33368;DHT22;19724;51.114;13.906;2022-12-31T02:24:06;9.10;99.90
33368;DHT22;19724;51.114;13.906;2022-12-31T02:27:05;9.10;99.90
33368;DHT22;19724;51.114;13.906;2022-12-31T02:30:03;9.10;99.90
33368;DHT22;19724;51.114;13.906;2022-12-31T02:32:55;9.00;99.90
33368;DHT22;19724;51.114;13.906;2022-12-31T02:36:25;9.00;99.90
33368;DHT22;19724;51.114;13.906;2022-12-31T02:38:38;9.00;99.90
33368;DHT22;19724;51.114;13.906;2022-12-31T02:41:05;9.00;99.90
33368;DHT22;19724;51.114;13.906;2022-12-31T02:43:30;9.00;99.90
33368;DHT22;19724;51.114;13.906;2022-12-31T02:46:18;8.90;99.90
33368;DHT22;19724;51.114;13.906;2022-12-31T02:48:52;9.00;99.90
33368;DHT22;19724;51.114;13.906;2022-12-31T02:51:32;9.00;99.90
33368;DHT22;19724;51.114;13.906;2022-12-31T02:54:21;9.00;99.90
33368;DHT22;19724;51.114;13.906;2022-12-31T02:57:05;9.00;99.90
33368;DHT22;19724;51.114;13.906;2022-12-31T02:59:50;9.10;99.90
33368;DHT22;19724;51.114;13.906;2022-12-31T03:02:38;9.10;99.90
33368;DHT22;19724;51.114;13.906;2022-12-31T03:05:05;9.10;99.90
33368;DHT22;19724;51.114;13.906;2022-12-31T03:07:32;9.10;99.90
33368;DHT22;19724;51.114;13.906;2022-12-31T03:09:58;9.20;99.90
33368;DHT22;19724;51.114;13.906;2022-12-31T03:12:28;9.20;99.90
33368;DHT22;19724;51.114;13.906;2022-12-31T03:15:18;9.20;99.90
33368;DHT22;19724;51.114;13.906;2022-12-31T03:20:29;9.20;99.90
33368;DHT22;19724;51.114;13.906;2022-12-31T03:23:16;9.20;99.90
33368;DHT22;19724;51.114;13.906;2022-12-31T03:25:42;9.30;99.90
33368;DHT22;19724;51.114;13.906;2022-12-31T03:28:17;9.30;99.90
33368;DHT22;19724;51.114;13.906;2022-12-31T03:30:46;9.30;99.90
33368;DHT22;19724;51.114;13.906;2022-12-31T03:33:12;9.30;99.90
33368;DHT22;19724;51.114;13.906;2022-12-31T03:35:39;9.30;99.90
33368;DHT22;19724;51.114;13.906;2022-12-31T03:38:05;9.40;99.90
33368;DHT22;19724;51.114;13.906;2022-12-31T03:40:31;9.40;99.90
33368;DHT22;19724;51.114;13.906;2022-12-31T03:42:59;9.40;99.90
33368;DHT22;19724;51.114;13.906;2022-12-31T03:45:25;9.40;99.90
33368;DHT22;19724;51.114;13.906;2022-12-31T03:47:50;9.40;99.90
33368;DHT22;19724;51.114;13.906;2022-12-31T03:50:17;9.40;99.90
33368;DHT22;19724;51.114;13.906;2022-12-31T03:52:44;9.50;99.90
33368;DHT22;19724;51.114;13.906;2022-12-31T03:55:10;9.50;99.90
33368;DHT22;19724;51.114;13.906;2022-12-31T03:57:36;9.50;99.90
33368;DHT22;19724;51.114;13.906;2022-12-31T04:00:05;9.50;99.90
33368;DHT22;19724;51.114;13.906;2022-12-31T04:02:31;9.50;99.90
33368;DHT22;19724;51.114;13.906;2022-12-31T04:04:56;9.50;99.90
33368;DHT22;19724;51.114;13.906;2022-12-31T04:07:22;9.50;99.90
33368;DHT22;19724;51.114;13.906;2022-12-31T04:09:48;9.50;99.90
33368;DHT22;19724;51.114;13.906;2022-12-31T04:12:13;9.50;99.90
33368;DHT22;19724;51.114;13.906;2022-12-31T04:14:39;9.50;99.90
33368;DHT22;19724;51.114;13.906;2022-12-31T04:17:04;9.60;99.90
33368;DHT22;19724;51.114;13.906;2022-12-31T04:19:30;9.60;99.90
33368;DHT22;19724;51.114;13.906;2022-12-31T04:21:55;9.60;99.90
33368;DHT22;19724;51.114;13.906;2022-12-31T04:24:21;9.60;99.90
33368;DHT22;19724;51.114;13.906;2022-12-31T04:26:46;9.60;99.90
33368;DHT22;19724;51.114;13.906;2022-12-31T04:29:12;9.60;99.90
33368;DHT22;19724;51.114;13.906;2022-12-31T04:31:37;9.60;99.90
33368;DHT22;19724;51.114;13.906;2022-12-31T04:34:03;9.60;99.90
33368;DHT22;19724;51.114;13.906;2022-12-31T04:36:28;9.60;99.90
33368;DHT22;19724;51.114;13.906;2022-12-31T04:38:54;9.60;99.90
33368;DHT22;19724;51.114;13.906;2022-12-31T04:41:20;9.60;99.90
33368;DHT22;19724;51.114;13.906;2022-12-31T04:43:49;9.60;99.90
33368;DHT22;19724;51.114;13.906;2022-12-31T04:46:16;9.60;99.90
33368;DHT22;19724;51.114;13.906;2022-12-31T04:48:42;9.60;99.90
33368;DHT22;19724;51.114;13.906;2022-12-31T04:51:08;9.60;99.90
33368;DHT22;19724;51.114;13.906;2022-12-31T04:53:34;9.60;99.90
33368;DHT22;19724;51.114;13.906;2022-12-31T04:56:00;9.50;99.90
33368;DHT22;19724;51.114;13.906;2022-12-31T04:58:26;9.60;99.90
33368;DHT22;19724;51.114;13.906;2022-12-31T05:00:51;9.60;99.90
33368;DHT22;19724;51.114;13.906;2022-12-31T05:03:19;9.60;99.90
33368;DHT22;19724;51.114;13.906;2022-12-31T05:05:45;9.60;99.90
33368;DHT22;19724;51.114;13.906;2022-12-31T05:08:11;9.60;99.90
33368;DHT22;19724;51.114;13.906;2022-12-31T05:10:45;9.70;99.90
33368;DHT22;19724;51.114;13.906;2022-12-31T05:13:11;9.70;99.90
33368;DHT22;19724;51.114;13.906;2022-12-31T05:15:40;9.70;99.90
33368;DHT22;19724;51.114;13.906;2022-12-31T05:18:06;9.70;99.90
33368;DHT22;19724;51.114;13.906;2022-12-31T05:20:32;9.70;99.90
33368;DHT22;19724;51.114;13.906;2022-12-31T05:22:58;9.70;99.90
33368;DHT22;19724;51.114;13.906;2022-12-31T05:25:24;9.80;99.90
33368;DHT22;19724;51.114;13.906;2022-12-31T05:27:49;9.70;99.90
33368;DHT22;19724;51.114;13.906;2022-12-31T05:30:15;9.90;99.90
33368;DHT22;19724;51.114;13.906;2022-12-31T05:32:43;9.90;99.90
33368;DHT22;19724;51.114;13.906;2022-12-31T05:35:09;10.00;99.90
33368;DHT22;19724;51.114;13.906;2022-12-31T05:37:34;10.00;99.90
33368;DHT22;19724;51.114;13.906;2022-12-31T05:40:00;10.00;99.90
33368;DHT22;19724;51.114;13.906;2022-12-31T05:42:25;10.10;99.90
33368;DHT22;19724;51.114;13.906;2022-12-31T05:44:51;10.10;99.90
33368;DHT22;19724;51.114;13.906;2022-12-31T05:47:16;10.10;99.90
33368;DHT22;19724;51.114;13.906;2022-12-31T05:49:42;10.10;99.90
33368;DHT22;19724;51.114;13.906;2022-12-31T05:52:08;10.20;99.90
33368;DHT22;19724;51.114;13.906;2022-12-31T05:54:33;10.20;99.90
33368;DHT22;19724;51.114;13.906;2022-12-31T05:56:59;10.30;99.90
33368;DHT22;19724;51.114;13.906;2022-12-31T05:59:24;10.20;99.90
33368;DHT22;19724;51.114;13.906;2022-12-31T06:01:50;10.30;99.90
33368;DHT22;19724;51.114;13.906;2022-12-31T06:04:15;10.30;99.90
33368;DHT22;19724;51.114;13.906;2022-12-31T06:06:41;10.30;99.90
33368;DHT22;19724;51.114;13.906;2022-12-31T06:09:06;10.30;99.90
33368;DHT22;19724;51.114;13.906;2022-12-31T06:11:32;10.30;99.90
33368;DHT22;19724;51.114;13.906;2022-12-31T06:13:57;10.30;99.90
33368;DHT22;19724;51.114;13.906;2022-12-31T06:16:23;10.30;99.90
33368;DHT22;19724;51.114;13.906;2022-12-31T06:18:49;10.40;99.90
33368;DHT22;19724;51.114;13.906;2022-12-31T06:21:16;10.50;99.90
33368;DHT22;19724;51.114;13.906;2022-12-31T06:23:42;10.70;99.90
33368;DHT22;19724;51.114;13.906;2022-12-31T06:26:07;10.80;99.90
33368;DHT22;19724;51.114;13.906;2022-12-31T06:28:33;11.00;99.90
33368;DHT22;19724;51.114;13.906;2022-12-31T06:31:04;11.10;99.90
33368;DHT22;19724;51.114;13.906;2022-12-31T06:33:30;11.30;99.90
33368;DHT22;19724;51.114;13.906;2022-12-31T06:35:57;11.40;99.90
33368;DHT22;19724;51.114;13.906;2022-12-31T06:38:24;11.50;99.90
33368;DHT22;19724;51.114;13.906;2022-12-31T06:40:50;11.60;99.90
33368;DHT22;19724;51.114;13.906;2022-12-31T06:43:16;11.70;99.90
33368;DHT22;19724;51.114;13.906;2022-12-31T06:45:41;11.80;99.90
33368;DHT22;19724;51.114;13.906;2022-12-31T06:48:07;11.90;99.90
33368;DHT22;19724;51.114;13.906;2022-12-31T06:50:32;12.00;99.90
33368;DHT22;19724;51.114;13.906;2022-12-31T06:52:58;12.00;99.90
33368;DHT22;19724;51.114;13.906;2022-12-31T06:55:24;12.10;99.90
33368;DHT22;19724;51.114;13.906;2022-12-31T06:57:49;12.20;99.90
33368;DHT22;19724;51.114;13.906;2022-12-31T07:00:15;12.20;99.90
33368;DHT22;19724;51.114;13.906;2022-12-31T07:03:19;12.20;99.90
33368;DHT22;19724;51.114;13.906;2022-12-31T07:06:01;12.20;99.90
33368;DHT22;19724;51.114;13.906;2022-12-31T07:09:09;12.30;99.90
33368;DHT22;19724;51.114;13.906;2022-12-31T07:11:46;12.30;99.90
33368;DHT22;19724;51.114;13.906;2022-12-31T07:14:25;12.40;99.90
33368;DHT22;19724;51.114;13.906;2022-12-31T07:17:03;12.40;99.90
33368;DHT22;19724;51.114;13.906;2022-12-31T07:20:02;12.50;99.90
33368;DHT22;19724;51.114;13.906;2022-12-31T07:22:29;12.60;99.90
33368;DHT22;19724;51.114;13.906;2022-12-31T07:24:55;12.60;99.90
33368;DHT22;19724;51.114;13.906;2022-12-31T07:38:06;12.90;99.90
33368;DHT22;19724;51.114;13.906;2022-12-31T07:43:52;13.00;99.90
33368;DHT22;19724;51.114;13.906;2022-12-31T07:47:13;13.00;99.90
33368;DHT22;19724;51.114;13.906;2022-12-31T07:49:19;13.10;99.90
33368;DHT22;19724;51.114;13.906;2022-12-31T07:51:45;13.20;99.90
33368;DHT22;19724;51.114;13.906;2022-12-31T07:54:10;13.20;99.90
33368;DHT22;19724;51.114;13.906;2022-12-31T07:56:36;13.20;99.90
33368;DHT22;19724;51.114;13.906;2022-12-31T08:01:47;13.20;99.90
33368;DHT22;19724;51.114;13.906;2022-12-31T08:10:07;13.40;99.90
33368;DHT22;19724;51.114;13.906;2022-12-31T08:12:35;13.50;99.90
33368;DHT22;19724;51.114;13.906;2022-12-31T08:15:02;13.50;99.90
33368;DHT22;19724;51.114;13.906;2022-12-31T08:17:27;13.70;99.90
33368;DHT22;19724;51.114;13.906;2022-12-31T08:19:53;13.70;99.90
33368;DHT22;19724;51.114;13.906;2022-12-31T08:22:34;13.80;99.90
33368;DHT22;19724;51.114;13.906;2022-12-31T08:25:13;13.90;99.90
33368;DHT22;19724;51.114;13.906;2022-12-31T08:33:13;14.20;99.90
33368;DHT22;19724;51.114;13.906;2022-12-31T08:36:01;14.30;99.90
33368;DHT22;19724;51.114;13.906;2022-12-31T08:41:22;14.50;99.90
33368;DHT22;19724;51.114;13.906;2022-12-31T08:47:25;14.60;99.90
33368;DHT22;19724;51.114;13.906;2022-12-31T08:49:54;14.80;99.90
33368;DHT22;19724;51.114;13.906;2022-12-31T08:52:23;14.90;99.90
33368;DHT22;19724;51.114;13.906;2022-12-31T08:54:49;15.00;99.90
33368;DHT22;19724;51.114;13.906;2022-12-31T08:57:26;15.10;99.90
33368;DHT22;19724;51.114;13.906;2022-12-31T09:00:09;15.10;99.90
33368;DHT22;19724;51.114;13.906;2022-12-31T09:16:31;15.60;99.90
33368;DHT22;19724;51.114;13.906;2022-12-31T09:19:00;15.70;99.90
33368;DHT22;19724;51.114;13.906;2022-12-31T09:21:25;15.80;99.90
33368;DHT22;19724;51.114;13.906;2022-12-31T09:23:51;15.80;99.90
33368;DHT22;19724;51.114;13.906;2022-12-31T09:29:22;15.80;99.90
33368;DHT22;19724;51.114;13.906;2022-12-31T09:34:52;15.80;99.90
33368;DHT22;19724;51.114;13.906;2022-12-31T09:37:39;15.80;99.90
33368;DHT22;19724;51.114;13.906;2022-12-31T09:46:19;15.90;99.90
33368;DHT22;19724;51.114;13.906;2022-12-31T09:49:01;15.90;99.90
33368;DHT22;19724;51.114;13.906;2022-12-31T09:51:31;15.90;99.90
33368;DHT22;19724;51.114;13.906;2022-12-31T09:57:10;16.10;99.90
33368;DHT22;19724;51.114;13.906;2022-12-31T09:59:59;16.10;99.90
33368;DHT22;19724;51.114;13.906;2022-12-31T10:05:51;16.20;99.90
33368;DHT22;19724;51.114;13.906;2022-12-31T10:08:48;16.30;99.90
33368;DHT22;19724;51.114;13.906;2022-12-31T10:19:43;17.20;99.90
33368;DHT22;19724;51.114;13.906;2022-12-31T10:25:31;17.60;99.90
33368;DHT22;19724;51.114;13.906;2022-12-31T10:28:29;17.80;99.90
33368;DHT22;19724;51.114;13.906;2022-12-31T10:31:07;18.00;99.90
33368;DHT22;19724;51.114;13.906;2022-12-31T10:33:42;18.20;99.90
33368;DHT22;19724;51.114;13.906;2022-12-31T10:36:31;18.20;99.90
33368;DHT22;19724;51.114;13.906;2022-12-31T10:39:22;18.10;99.90
33368;DHT22;19724;51.114;13.906;2022-12-31T10:44:44;18.20;99.90
33368;DHT22;19724;51.114;13.906;2022-12-31T10:47:41;18.30;99.90
33368;DHT22;19724;51.114;13.906;2022-12-31T10:50:32;18.30;99.90
33368;DHT22;19724;51.114;13.906;2022-12-31T10:53:40;18.10;99.90
33368;DHT22;19724;51.114;13.906;2022-12-31T11:01:53;17.70;99.90
33368;DHT22;19724;51.114;13.906;2022-12-31T11:04:56;17.60;99.90
33368;DHT22;19724;51.114;13.906;2022-12-31T11:10:30;17.40;99.90
33368;DHT22;19724;51.114;13.906;2022-12-31T11:13:15;17.30;99.90
33368;DHT22;19724;51.114;13.906;2022-12-31T11:21:39;17.20;99.90
33368;DHT22;19724;51.114;13.906;2022-12-31T11:24:16;17.20;99.90
33368;DHT22;19724;51.114;13.906;2022-12-31T11:30:18;17.20;99.90
33368;DHT22;19724;51.114;13.906;2022-12-31T11:32:52;17.20;99.90
33368;DHT22;19724;51.114;13.906;2022-12-31T11:38:27;17.20;99.90
33368;DHT22;19724;51.114;13.906;2022-12-31T11:44:00;17.20;99.90
33368;DHT22;19724;51.114;13.906;2022-12-31T11:46:36;17.20;99.90
33368;DHT22;19724;51.114;13.906;2022-12-31T11:54:57;17.20;99.90
33368;DHT22;19724;51.114;13.906;2022-12-31T11:57:38;17.20;99.90
33368;DHT22;19724;51.114;13.906;2022-12-31T12:00:21;17.20;99.90
33368;DHT22;19724;51.114;13.906;2022-12-31T12:02:52;17.30;99.90
33368;DHT22;19724;51.114;13.906;2022-12-31T12:05:23;17.30;99.90
33368;DHT22;19724;51.114;13.906;2022-12-31T12:07:50;17.30;99.90
33368;DHT22;19724;51.114;13.906;2022-12-31T12:12:49;17.40;99.90
33368;DHT22;19724;51.114;13.906;2022-12-31T12:15:34;17.30;99.90
33368;DHT22;19724;51.114;13.906;2022-12-31T12:18:07;17.30;99.90
33368;DHT22;19724;51.114;13.906;2022-12-31T12:20:36;17.40;99.90
33368;DHT22;19724;51.114;13.906;2022-12-31T12:23:14;17.40;99.90
33368;DHT22;19724;51.114;13.906;2022-12-31T12:25:42;17.50;99.90
33368;DHT22;19724;51.114;13.906;2022-12-31T12:28:22;17.50;99.90
33368;DHT22;19724;51.114;13.906;2022-12-31T12:31:01;17.50;99.90
33368;DHT22;19724;51.114;13.906;2022-12-31T12:33:29;17.60;99.90
33368;DHT22;19724;51.114;13.906;2022-12-31T12:36:13;17.60;99.90
33368;DHT22;19724;51.114;13.906;2022-12-31T12:38:40;17.60;99.90
33368;DHT22;19724;51.114;13.906;2022-12-31T12:41:22;17.70;99.90
33368;DHT22;19724;51.114;13.906;2022-12-31T12:44:01;17.60;99.90
33368;DHT22;19724;51.114;13.906;2022-12-31T12:46:32;17.70;99.90
33368;DHT22;19724;51.114;13.906;2022-12-31T12:49:01;17.60;99.90
33368;DHT22;19724;51.114;13.906;2022-12-31T12:51:51;17.60;99.90
33368;DHT22;19724;51.114;13.906;2022-12-31T12:54:49;17.60;99.90
33368;DHT22;19724;51.114;13.906;2022-12-31T12:57:28;17.60;99.90
33368;DHT22;19724;51.114;13.906;2022-12-31T13:00:21;17.60;99.90
33368;DHT22;19724;51.114;13.906;2022-12-31T13:05:51;17.60;99.90
33368;DHT22;19724;51.114;13.906;2022-12-31T13:08:54;17.60;99.90
33368;DHT22;19724;51.114;13.906;2022-12-31T13:14:34;17.60;99.90
33368;DHT22;19724;51.114;13.906;2022-12-31T13:19:56;17.60;99.90
33368;DHT22;19724;51.114;13.906;2022-12-31T13:22:41;17.60;99.90
33368;DHT22;19724;51.114;13.906;2022-12-31T13:25:25;17.60;99.90
33368;DHT22;19724;51.114;13.906;2022-12-31T13:27:54;17.60;99.90
33368;DHT22;19724;51.114;13.906;2022-12-31T13:30:38;17.50;99.90
33368;DHT22;19724;51.114;13.906;2022-12-31T13:33:15;17.60;99.90
33368;DHT22;19724;51.114;13.906;2022-12-31T13:35:57;17.50;99.90
33368;DHT22;19724;51.114;13.906;2022-12-31T13:41:20;17.50;99.90
33368;DHT22;19724;51.114;13.906;2022-12-31T13:43:52;17.50;99.90
33368;DHT22;19724;51.114;13.906;2022-12-31T13:49:18;17.40;99.90
33368;DHT22;19724;51.114;13.906;2022-12-31T13:51:50;17.50;99.90
33368;DHT22;19724;51.114;13.906;2022-12-31T13:54:43;17.40;99.90
33368;DHT22;19724;51.114;13.906;2022-12-31T14:00:13;17.40;99.90
33368;DHT22;19724;51.114;13.906;2022-12-31T14:07:58;17.30;99.90
33368;DHT22;19724;51.114;13.906;2022-12-31T14:10:50;17.30;99.90
33368;DHT22;19724;51.114;13.906;2022-12-31T14:13:50;17.30;99.90
33368;DHT22;19724;51.114;13.906;2022-12-31T14:16:46;17.20;99.90
33368;DHT22;19724;51.114;13.906;2022-12-31T14:19:23;17.20;99.90
33368;DHT22;19724;51.114;13.906;2022-12-31T14:22:03;17.20;99.90
33368;DHT22;19724;51.114;13.906;2022-12-31T14:24:46;17.20;99.90
33368;DHT22;19724;51.114;13.906;2022-12-31T14:27:18;17.10;99.90
33368;DHT22;19724;51.114;13.906;2022-12-31T14:30:26;17.10;99.90
33368;DHT22;19724;51.114;13.906;2022-12-31T14:35:55;17.00;99.90
33368;DHT22;19724;51.114;13.906;2022-12-31T14:38:50;17.00;99.90
33368;DHT22;19724;51.114;13.906;2022-12-31T14:41:38;17.00;99.90
33368;DHT22;19724;51.114;13.906;2022-12-31T14:44:39;16.90;99.90
33368;DHT22;19724;51.114;13.906;2022-12-31T14:50:16;16.90;99.90
33368;DHT22;19724;51.114;13.906;2022-12-31T14:55:32;16.80;99.90
33368;DHT22;19724;51.114;13.906;2022-12-31T14:58:00;16.70;99.90
33368;DHT22;19724;51.114;13.906;2022-12-31T15:00:38;16.70;99.90
33368;DHT22;19724;51.114;13.906;2022-12-31T15:06:00;16.80;99.90
33368;DHT22;19724;51.114;13.906;2022-12-31T15:08:31;16.70;99.90
33368;DHT22;19724;51.114;13.906;2022-12-31T15:11:15;16.80;99.90
33368;DHT22;19724;51.114;13.906;2022-12-31T15:14:00;16.80;99.90
33368;DHT22;19724;51.114;13.906;2022-12-31T15:22:21;16.60;99.90
33368;DHT22;19724;51.114;13.906;2022-12-31T15:24:50;16.60;99.90
33368;DHT22;19724;51.114;13.906;2022-12-31T15:27:30;16.60;99.90
33368;DHT22;19724;51.114;13.906;2022-12-31T15:29:58;16.60;99.90
33368;DHT22;19724;51.114;13.906;2022-12-31T15:32:34;16.60;99.90
33368;DHT22;19724;51.114;13.906;2022-12-31T15:35:03;16.60;99.90
33368;DHT22;19724;51.114;13.906;2022-12-31T15:37:35;16.60;99.90
33368;DHT22;19724;51.114;13.906;2022-12-31T15:40:26;16.60;99.90
33368;DHT22;19724;51.114;13.906;2022-12-31T15:43:35;16.60;99.90
33368;DHT22;19724;51.114;13.906;2022-12-31T15:46:13;16.50;99.90
33368;DHT22;19724;51.114;13.906;2022-12-31T15:48:44;16.50;99.90
33368;DHT22;19724;51.114;13.906;2022-12-31T15:51:16;16.50;99.90
33368;DHT22;19724;51.114;13.906;2022-12-31T15:53:46;16.40;99.90
33368;DHT22;19724;51.114;13.906;2022-12-31T15:56:29;16.40;99.90
33368;DHT22;19724;51.114;13.906;2022-12-31T15:58:57;16.40;99.90
33368;DHT22;19724;51.114;13.906;2022-12-31T16:01:28;16.40;99.90
33368;DHT22;19724;51.114;13.906;2022-12-31T16:03:58;16.30;99.90
33368;DHT22;19724;51.114;13.906;2022-12-31T16:06:26;16.30;99.90
33368;DHT22;19724;51.114;13.906;2022-12-31T16:08:53;16.20;99.90
33368;DHT22;19724;51.114;13.906;2022-12-31T16:11:20;16.20;99.90
33368;DHT22;19724;51.114;13.906;2022-12-31T16:13:48;16.20;99.90
33368;DHT22;19724;51.114;13.906;2022-12-31T16:16:30;16.20;99.90
33368;DHT22;19724;51.114;13.906;2022-12-31T16:18:56;16.20;99.90
33368;DHT22;19724;51.114;13.906;2022-12-31T16:21:34;16.10;99.90
33368;DHT22;19724;51.114;13.906;2022-12-31T16:24:03;16.10;99.90
33368;DHT22;19724;51.114;13.906;2022-12-31T16:26:49;16.10;99.90
33368;DHT22;19724;51.114;13.906;2022-12-31T16:29:18;16.10;99.90
33368;DHT22;19724;51.114;13.906;2022-12-31T16:31:46;16.00;99.90
33368;DHT22;19724;51.114;13.906;2022-12-31T16:34:18;16.00;99.90
33368;DHT22;19724;51.114;13.906;2022-12-31T16:37:01;16.00;99.90
33368;DHT22;19724;51.114;13.906;2022-12-31T16:39:37;16.00;99.90
33368;DHT22;19724;51.114;13.906;2022-12-31T16:44:37;16.00;99.90
33368;DHT22;19724;51.114;13.906;2022-12-31T16:47:04;16.00;99.90
33368;DHT22;19724;51.114;13.906;2022-12-31T16:49:32;16.00;99.90
33368;DHT22;19724;51.114;13.906;2022-12-31T16:52:05;16.00;99.90
33368;DHT22;19724;51.114;13.906;2022-12-31T16:54:34;16.10;99.90
33368;DHT22;19724;51.114;13.906;2022-12-31T16:57:01;16.00;99.90
33368;DHT22;19724;51.114;13.906;2022-12-31T16:59:33;16.00;99.90
33368;DHT22;19724;51.114;13.906;2022-12-31T17:02:03;16.10;99.90
33368;DHT22;19724;51.114;13.906;2022-12-31T17:04:33;16.10;99.90
33368;DHT22;19724;51.114;13.906;2022-12-31T17:07:23;16.00;99.90
33368;DHT22;19724;51.114;13.906;2022-12-31T17:10:42;16.10;99.90
33368;DHT22;19724;51.114;13.906;2022-12-31T17:12:58;16.10;99.90
33368;DHT22;19724;51.114;13.906;2022-12-31T17:15:29;16.10;99.90
33368;DHT22;19724;51.114;13.906;2022-12-31T17:18:02;16.10;99.90
33368;DHT22;19724;51.114;13.906;2022-12-31T17:20:30;16.10;99.90
33368;DHT22;19724;51.114;13.906;2022-12-31T17:22:59;16.20;99.90
33368;DHT22;19724;51.114;13.906;2022-12-31T17:25:27;16.10;99.90
33368;DHT22;19724;51.114;13.906;2022-12-31T17:28:21;16.10;99.90
33368;DHT22;19724;51.114;13.906;2022-12-31T17:30:47;16.10;99.90
33368;DHT22;19724;51.114;13.906;2022-12-31T17:35:41;16.10;99.90
33368;DHT22;19724;51.114;13.906;2022-12-31T17:40:53;16.10;99.90
33368;DHT22;19724;51.114;13.906;2022-12-31T17:43:21;16.00;99.90
33368;DHT22;19724;51.114;13.906;2022-12-31T17:45:50;16.10;99.90
33368;DHT22;19724;51.114;13.906;2022-12-31T17:48:18;16.10;99.90
33368;DHT22;19724;51.114;13.906;2022-12-31T17:50:52;16.10;99.90
33368;DHT22;19724;51.114;13.906;2022-12-31T17:53:19;16.10;99.90
33368;DHT22;19724;51.114;13.906;2022-12-31T17:55:47;16.10;99.90
33368;DHT22;19724;51.114;13.906;2022-12-31T17:58:31;16.20;99.90
33368;DHT22;19724;51.114;13.906;2022-12-31T18:00:59;16.20;99.90
33368;DHT22;19724;51.114;13.906;2022-12-31T18:03:25;16.20;99.90
33368;DHT22;19724;51.114;13.906;2022-12-31T18:05:50;16.20;99.90
33368;DHT22;19724;51.114;13.906;2022-12-31T18:08:16;16.10;99.90
33368;DHT22;19724;51.114;13.906;2022-12-31T18:10:43;16.20;99.90
33368;DHT22;19724;51.114;13.906;2022-12-31T18:13:17;16.20;99.90
33368;DHT22;19724;51.114;13.906;2022-12-31T18:15:43;16.20;99.90
33368;DHT22;19724;51.114;13.906;2022-12-31T18:18:17;16.30;99.90
33368;DHT22;19724;51.114;13.906;2022-12-31T18:20:44;16.20;99.90
33368;DHT22;19724;51.114;13.906;2022-12-31T18:23:17;16.30;99.90
33368;DHT22;19724;51.114;13.906;2022-12-31T18:25:43;16.20;99.90
33368;DHT22;19724;51.114;13.906;2022-12-31T18:28:09;16.20;99.90
33368;DHT22;19724;51.114;13.906;2022-12-31T18:30:36;16.20;99.90
33368;DHT22;19724;51.114;13.906;2022-12-31T18:33:01;16.20;99.90
33368;DHT22;19724;51.114;13.906;2022-12-31T18:35:30;16.10;99.90
33368;DHT22;19724;51.114;13.906;2022-12-31T18:37:56;16.10;99.90
33368;DHT22;19724;51.114;13.906;2022-12-31T18:40:22;16.10;99.90
33368;DHT22;19724;51.114;13.906;2022-12-31T18:42:47;16.10;99.90
33368;DHT22;19724;51.114;13.906;2022-12-31T18:45:16;16.00;99.90